Time;durP1;ratioP1;P1;durP2;ratioP2;P2;SDS_P1;SDS_P2;PMS_P1;PMS_P2;Temp;Humidity;BMP_temperature;BMP_pressure;BME280_temperature;BME280_humidity;BME280_pressure;Samples;Min_cycle;Max_cycle;Signal;HPM_P1;HPM_P2
2021/10/19 00:00:32;;;;;;;13.57;8.13;;;;;;;11.80;75.95;100327.72;5033679;28;20041;-62
2021/10/19 00:03:16;;;;;;;11.25;8.38;;;;;;;11.80;76.03;100324.25;5033645;28;20076;-62
2021/10/19 00:06:00;;;;;;;11.75;8.45;;;;;;;11.79;75.83;100317.31;5033147;28;20063;-64
2021/10/19 00:08:49;;;;;;;11.30;8.82;;;;;;;11.79;76.00;100315.56;5033737;28;20572;-63
2021/10/19 00:11:45;;;;;;;10.90;8.27;;;;;;;11.80;76.31;100306.06;5032363;28;20041;-63
2021/10/19 00:14:37;;;;;;;11.02;8.60;;;;;;;11.81;75.97;100302.63;5032717;28;20053;-62
2021/10/19 00:17:24;;;;;;;9.77;8.00;;;;;;;11.81;75.90;100294.84;5031870;28;20524;-63
2021/10/19 00:20:12;;;;;;;12.10;8.50;;;;;;;11.81;76.21;100293.09;5032131;28;20095;-63
2021/10/19 00:23:00;;;;;;;10.48;7.93;;;;;;;11.81;76.18;100293.09;5032373;28;20044;-63
2021/10/19 00:25:45;;;;;;;9.73;8.00;;;;;;;11.82;76.02;100292.25;5032783;28;20429;-63
2021/10/19 00:28:28;;;;;;;12.25;8.40;;;;;;;11.83;76.52;100290.56;5033414;28;20052;-63
2021/10/19 00:31:12;;;;;;;11.73;8.90;;;;;;;11.82;76.42;100292.25;5033050;28;20410;-63
2021/10/19 00:34:01;;;;;;;10.32;8.65;;;;;;;11.84;76.46;100300.06;5032003;28;20465;-63
2021/10/19 00:36:48;;;;;;;11.85;8.30;;;;;;;11.86;76.20;100309.63;5033071;28;20429;-63
2021/10/19 00:39:35;;;;;;;9.63;8.43;;;;;;;11.87;76.17;100313.97;5032123;28;20049;-63
2021/10/19 00:42:27;;;;;;;12.70;7.85;;;;;;;11.88;76.43;100313.13;5032937;28;20060;-63
2021/10/19 00:45:14;;;;;;;13.05;9.27;;;;;;;11.88;76.10;100312.25;5032476;28;20048;-63
2021/10/19 00:48:01;;;;;;;12.00;8.68;;;;;;;11.88;76.25;100296.66;5033194;28;20044;-63
2021/10/19 00:50:48;;;;;;;11.82;8.05;;;;;;;11.88;76.37;100289.75;5031799;28;20056;-63
2021/10/19 00:53:37;;;;;;;11.52;8.02;;;;;;;11.87;76.57;100289.72;5033046;28;20440;-63
2021/10/19 00:56:27;;;;;;;16.40;9.63;;;;;;;11.87;76.60;100290.59;5032155;28;20510;-63
2021/10/19 00:59:17;;;;;;;10.85;9.32;;;;;;;11.86;76.40;100286.25;5031448;28;20048;-64
2021/10/19 01:02:05;;;;;;;12.20;8.20;;;;;;;11.86;76.72;100285.38;5032026;28;20184;-61
2021/10/19 01:04:52;;;;;;;10.07;8.00;;;;;;;11.88;76.49;100281.06;5032156;28;20515;-62
2021/10/19 01:07:38;;;;;;;8.75;7.65;;;;;;;11.88;76.40;100281.97;5032885;28;20053;-62
2021/10/19 01:10:23;;;;;;;10.13;8.15;;;;;;;11.87;76.46;100275.03;5033231;28;20136;-61
2021/10/19 01:13:09;;;;;;;10.32;8.32;;;;;;;11.87;76.81;100276.75;5032763;28;20044;-62
2021/10/19 01:16:11;;;;;;;12.98;9.68;;;;;;;11.88;76.74;100271.59;5032149;28;20048;-61
2021/10/19 01:19:01;;;;;;;13.20;8.00;;;;;;;11.89;76.90;100267.25;5032590;28;20534;-62
2021/10/19 01:21:50;;;;;;;11.15;8.65;;;;;;;11.91;76.52;100270.75;5032186;28;20052;-62
2021/10/19 01:24:36;;;;;;;10.05;8.68;;;;;;;11.92;76.60;100269.00;5035201;28;20052;-62
2021/10/19 01:27:25;;;;;;;10.70;8.30;;;;;;;11.93;76.98;100270.75;5035805;28;20084;-62
2021/10/19 01:30:16;;;;;;;9.77;8.00;;;;;;;11.93;77.09;100268.16;5035476;28;20052;-62
2021/10/19 01:33:00;;;;;;;10.98;8.38;;;;;;;11.93;76.62;100247.38;5035218;28;20140;-62
2021/10/19 01:35:47;;;;;;;10.07;8.30;;;;;;;11.94;77.04;100252.63;5036049;28;20051;-61
2021/10/19 01:38:33;;;;;;;14.98;8.23;;;;;;;11.94;76.76;100252.63;5035433;28;20451;-62
2021/10/19 01:41:25;;;;;;;12.90;8.65;;;;;;;11.94;76.85;100250.00;5035671;28;20550;-63
2021/10/19 01:44:15;;;;;;;15.32;9.25;;;;;;;11.96;76.90;100237.94;5035265;28;20056;-64
2021/10/19 01:46:59;;;;;;;12.52;8.95;;;;;;;11.97;77.17;100242.28;5035807;28;20052;-62
2021/10/19 01:49:45;;;;;;;10.25;7.68;;;;;;;11.98;77.08;100230.13;5035980;28;20100;-63
2021/10/19 01:52:32;;;;;;;11.30;8.52;;;;;;;12.00;77.12;100225.88;5035565;28;20096;-64
2021/10/19 01:55:19;;;;;;;17.00;9.02;;;;;;;12.00;77.07;100223.28;5036007;28;20095;-63
2021/10/19 01:58:09;;;;;;;15.88;8.52;;;;;;;12.01;77.31;100222.44;5035016;28;20061;-64
2021/10/19 02:00:54;;;;;;;11.10;8.65;;;;;;;12.00;77.07;100213.75;5035198;28;20047;-63
2021/10/19 02:03:49;;;;;;;17.10;8.45;;;;;;;12.01;76.96;100209.44;5036355;28;20057;-63
2021/10/19 02:06:33;;;;;;;11.98;8.52;;;;;;;12.01;77.08;100210.28;5034662;28;20044;-63
2021/10/19 02:09:20;;;;;;;11.73;8.48;;;;;;;12.02;77.20;100200.78;5034814;28;20163;-63
2021/10/19 02:12:13;;;;;;;11.85;9.00;;;;;;;12.03;77.16;100194.75;5035648;28;20145;-63
2021/10/19 02:15:03;;;;;;;12.65;8.68;;;;;;;12.02;77.18;100201.66;5034511;28;20046;-63
2021/10/19 02:17:53;;;;;;;9.63;7.90;;;;;;;12.05;77.23;100199.94;5034778;28;20057;-63
2021/10/19 02:20:38;;;;;;;11.60;8.20;;;;;;;12.06;76.96;100184.41;5033883;28;20519;-63
2021/10/19 02:23:23;;;;;;;11.25;8.68;;;;;;;12.07;77.66;100177.47;5034172;28;20070;-63
2021/10/19 02:26:09;;;;;;;10.48;8.05;;;;;;;12.08;77.41;100172.28;5035181;28;20044;-63
2021/10/19 02:28:53;;;;;;;10.88;8.02;;;;;;;12.09;77.40;100178.38;5034932;28;20467;-63
2021/10/19 02:31:39;;;;;;;10.25;8.48;;;;;;;12.09;77.37;100162.78;5035330;28;20103;-63
2021/10/19 02:34:26;;;;;;;9.70;8.07;;;;;;;12.10;77.83;100160.19;5035039;28;20055;-63
2021/10/19 02:37:10;;;;;;;10.63;7.63;;;;;;;12.11;77.67;100154.13;5035303;28;20103;-63
2021/10/19 02:39:57;;;;;;;9.73;7.35;;;;;;;12.13;77.71;100154.16;5035058;28;20100;-63
2021/10/19 02:42:44;;;;;;;10.85;8.18;;;;;;;12.14;77.74;100143.78;5033792;28;20045;-63
2021/10/19 02:45:30;;;;;;;8.55;6.80;;;;;;;12.16;77.96;100151.59;5034897;28;20053;-63
2021/10/19 02:48:17;;;;;;;10.02;7.72;;;;;;;12.16;77.82;100147.28;5034311;28;20061;-63
2021/10/19 02:51:01;;;;;;;7.95;6.22;;;;;;;12.18;78.03;100144.69;5034925;28;20084;-63
2021/10/19 02:53:48;;;;;;;12.65;7.40;;;;;;;12.17;77.69;100130.84;5034592;28;20055;-63
2021/10/19 02:56:32;;;;;;;8.75;7.30;;;;;;;12.18;78.23;100135.19;5034162;28;20100;-63
2021/10/19 02:59:21;;;;;;;7.93;6.47;;;;;;;12.20;78.03;100142.13;5034659;28;20053;-63
2021/10/19 03:02:11;;;;;;;9.60;6.25;;;;;;;12.21;78.02;100138.66;5033081;28;20057;-63
2021/10/19 03:04:57;;;;;;;7.72;6.15;;;;;;;12.23;78.14;100139.53;5034250;28;20408;-63
2021/10/19 03:07:44;;;;;;;7.28;6.25;;;;;;;12.24;77.73;100141.28;5034738;28;20111;-63
2021/10/19 03:10:34;;;;;;;7.70;6.45;;;;;;;12.24;78.00;100143.88;5034619;28;20114;-63
2021/10/19 03:13:18;;;;;;;6.95;6.25;;;;;;;12.25;78.00;100138.72;5033518;28;20072;-63
2021/10/19 03:16:05;;;;;;;9.43;6.28;;;;;;;12.26;78.16;100145.66;5034434;28;20088;-63
2021/10/19 03:18:49;;;;;;;7.05;5.80;;;;;;;12.26;78.39;100139.56;5033329;28;20048;-63
2021/10/19 03:21:38;;;;;;;12.65;5.75;;;;;;;12.26;78.22;100148.25;5034099;28;20044;-63
2021/10/19 03:24:28;;;;;;;9.57;5.78;;;;;;;12.27;78.30;100146.50;5033085;28;20115;-63
2021/10/19 03:27:23;;;;;;;7.45;5.47;;;;;;;12.28;78.51;100143.06;5033069;28;20405;-63
2021/10/19 03:30:10;;;;;;;7.88;5.30;;;;;;;12.29;78.17;100150.00;5033214;28;20048;-63
2021/10/19 03:32:56;;;;;;;8.60;6.03;;;;;;;12.29;78.19;100144.81;5033634;28;20049;-63
2021/10/19 03:35:43;;;;;;;9.85;5.40;;;;;;;12.29;78.19;100153.50;5033228;28;20052;-63
2021/10/19 03:38:27;;;;;;;8.38;5.78;;;;;;;12.30;78.67;100155.19;5034102;28;20103;-63
2021/10/19 03:41:17;;;;;;;8.43;6.03;;;;;;;12.31;78.47;100156.09;5033587;28;20634;-63
2021/10/19 03:44:02;;;;;;;9.55;5.13;;;;;;;12.32;78.20;100157.84;5034127;28;20168;-63
2021/10/19 03:46:52;;;;;;;;;;;;;;;12.32;78.30;100163.03;5032691;28;20416;-63
2021/10/19 03:49:45;;;;;;;8.20;5.45;;;;;;;12.31;78.39;100163.88;5033049;28;19920;-63
2021/10/19 03:52:37;;;;;;;8.43;5.35;;;;;;;12.31;78.28;100162.16;5032511;28;20103;-63
2021/10/19 03:55:28;;;;;;;9.45;5.57;;;;;;;12.32;78.66;100163.88;5033513;28;20460;-63
2021/10/19 03:58:12;;;;;;;8.10;5.13;;;;;;;12.32;78.76;100148.28;5033350;28;20044;-63
2021/10/19 04:00:56;;;;;;;7.65;5.30;;;;;;;12.34;78.56;100140.53;5033606;28;20098;-63
2021/10/19 04:03:42;;;;;;;8.65;4.63;;;;;;;12.36;78.53;100143.13;5032780;28;20040;-61
2021/10/19 04:06:32;;;;;;;6.05;4.75;;;;;;;12.36;78.44;100154.41;5033286;28;20056;-62
2021/10/19 04:09:22;;;;;;;8.07;4.47;;;;;;;12.37;78.64;100147.47;5032323;28;20128;-62
2021/10/19 04:12:12;;;;;;;5.80;3.97;;;;;;;12.37;78.97;100150.97;5032319;28;20051;-62
2021/10/19 04:14:59;;;;;;;8.30;3.83;;;;;;;12.39;78.78;100149.22;5032579;28;20133;-62
2021/10/19 04:17:49;;;;;;;7.30;4.25;;;;;;;12.39;79.08;100149.22;5033641;28;20076;-62
2021/10/19 04:20:39;;;;;;;5.40;3.35;;;;;;;12.39;79.09;100143.19;5032350;28;20075;-62
2021/10/19 04:23:23;;;;;;;6.95;3.65;;;;;;;12.38;78.76;100142.28;5032730;28;20047;-62
2021/10/19 04:26:08;;;;;;;6.38;3.38;;;;;;;12.38;78.80;100146.63;5032045;28;20416;-63
2021/10/19 04:28:52;;;;;;;4.32;3.67;;;;;;;12.38;78.96;100138.81;5032616;28;20117;-62
2021/10/19 04:31:41;;;;;;;5.97;3.33;;;;;;;12.39;78.91;100145.78;5033488;28;20048;-64
2021/10/19 04:34:26;;;;;;;8.15;3.80;;;;;;;12.39;79.12;100143.19;5032042;28;20055;-64
2021/10/19 04:37:16;;;;;;;4.82;3.40;;;;;;;12.39;78.79;100146.63;5032535;28;20096;-63
2021/10/19 04:40:03;;;;;;;10.45;3.92;;;;;;;12.40;78.93;100145.78;5032265;28;20180;-63
2021/10/19 04:42:53;;;;;;;5.43;3.45;;;;;;;12.39;78.96;100154.44;5032871;28;20228;-63
2021/10/19 04:45:40;;;;;;;5.53;3.45;;;;;;;12.41;78.94;100152.72;5032473;28;20132;-63
2021/10/19 04:48:25;;;;;;;4.82;3.75;;;;;;;12.39;79.17;100154.44;5033080;28;20053;-63
2021/10/19 04:51:15;;;;;;;9.30;3.45;;;;;;;12.42;79.34;100158.81;5032346;28;20072;-63
2021/10/19 04:54:02;;;;;;;6.82;3.05;;;;;;;12.42;79.30;100164.00;5032125;28;20112;-64
2021/10/19 04:56:46;;;;;;;8.38;3.83;;;;;;;12.44;79.00;100150.16;5032751;28;20049;-63
2021/10/19 04:59:38;;;;;;;5.50;3.47;;;;;;;12.44;79.31;100155.34;5035136;28;20187;-64
2021/10/19 05:02:31;;;;;;;3.88;2.60;;;;;;;12.43;79.21;100145.81;5035501;28;20056;-63
2021/10/19 05:05:17;;;;;;;5.60;2.90;;;;;;;12.44;79.30;100144.09;5035707;28;20530;-63
2021/10/19 05:08:06;;;;;;;4.70;3.15;;;;;;;12.43;79.14;100143.22;5035899;28;20520;-64
2021/10/19 05:10:50;;;;;;;6.03;3.00;;;;;;;12.45;78.99;100140.66;5036734;28;20040;-63
2021/10/19 05:13:37;;;;;;;3.97;2.80;;;;;;;12.45;79.23;100149.31;5036729;28;20059;-63
2021/10/19 05:16:26;;;;;;;9.20;3.30;;;;;;;12.46;79.60;100140.66;5036022;28;20137;-63
2021/10/19 05:19:19;;;;;;;11.68;2.90;;;;;;;12.46;79.23;100151.06;5035582;28;20052;-63
2021/10/19 05:22:03;;;;;;;4.38;2.30;;;;;;;12.47;79.04;100146.72;5035328;28;20048;-63
2021/10/19 05:24:52;;;;;;;5.15;3.28;;;;;;;12.47;79.44;100147.59;5036078;28;20416;-63
2021/10/19 05:27:39;;;;;;;5.63;2.72;;;;;;;12.47;79.31;100145.00;5036449;28;20041;-63
2021/10/19 05:30:29;;;;;;;3.97;2.80;;;;;;;12.47;79.44;100146.72;5035288;28;20047;-63
2021/10/19 05:33:13;;;;;;;2.88;2.25;;;;;;;12.48;79.42;100148.44;5035431;28;20049;-63
2021/10/19 05:36:01;;;;;;;3.38;2.47;;;;;;;12.49;79.45;100145.88;5035852;28;20052;-63
2021/10/19 05:38:51;;;;;;;7.47;2.40;;;;;;;12.51;79.55;100145.03;5034994;28;20053;-63
2021/10/19 05:41:35;;;;;;;2.67;2.38;;;;;;;12.52;79.70;100144.19;5034448;28;20522;-63
2021/10/19 05:44:21;;;;;;;3.33;2.47;;;;;;;12.52;79.69;100137.22;5035906;28;20064;-63
2021/10/19 05:47:12;;;;;;;3.45;2.47;;;;;;;12.52;79.75;100129.44;5035271;28;20060;-63
2021/10/19 05:50:01;;;;;;;2.38;2.17;;;;;;;12.54;79.80;100132.03;5035611;28;20420;-63
2021/10/19 05:52:48;;;;;;;5.15;2.70;;;;;;;12.55;79.92;100125.97;5035886;28;20111;-63
2021/10/19 05:55:37;;;;;;;3.47;2.60;;;;;;;12.55;79.55;100134.66;5035858;28;20045;-63
2021/10/19 05:58:23;;;;;;;3.75;2.42;;;;;;;12.56;79.90;100136.41;5034709;28;20133;-63
2021/10/19 06:01:08;;;;;;;5.43;2.95;;;;;;;12.57;79.57;100130.34;5034700;28;20103;-63
2021/10/19 06:04:00;;;;;;;4.70;2.75;;;;;;;12.59;79.72;100135.56;5034461;28;20044;-63
2021/10/19 06:06:55;;;;;;;3.30;2.53;;;;;;;12.59;80.11;100125.16;5035610;28;20044;-63
2021/10/19 06:09:42;;;;;;;4.55;3.10;;;;;;;12.60;79.79;100124.31;5034390;28;20156;-63
2021/10/19 06:12:33;;;;;;;4.95;3.53;;;;;;;12.60;79.75;100137.31;5034778;28;20055;-63
2021/10/19 06:15:25;;;;;;;6.45;3.10;;;;;;;12.61;79.89;100136.44;5035723;28;20052;-63
2021/10/19 06:18:11;;;;;;;5.53;3.05;;;;;;;12.61;80.09;100132.09;5035408;28;20599;-63
2021/10/19 06:20:55;;;;;;;7.03;3.40;;;;;;;12.61;79.99;100126.91;5034985;28;20052;-63
2021/10/19 06:23:41;;;;;;;7.05;3.00;;;;;;;12.61;79.76;100141.66;5035130;28;20044;-63
2021/10/19 06:26:33;;;;;;;3.83;3.17;;;;;;;12.62;79.84;100138.19;5035155;28;20060;-63
2021/10/19 06:29:26;;;;;;;4.18;2.58;;;;;;;12.62;80.20;100139.06;5034991;28;20068;-63
2021/10/19 06:32:16;;;;;;;4.97;2.92;;;;;;;12.64;79.77;100145.16;5034903;28;20104;-63
2021/10/19 06:35:10;;;;;;;7.82;3.42;;;;;;;12.64;80.12;100144.28;5034471;28;20128;-62
2021/10/19 06:37:59;;;;;;;6.03;3.15;;;;;;;12.64;80.06;100141.69;5035015;28;20091;-63
2021/10/19 06:40:46;;;;;;;7.30;3.20;;;;;;;12.64;80.04;100146.88;5035151;28;20045;-64
2021/10/19 06:43:30;;;;;;;9.10;3.78;;;;;;;12.66;80.24;100146.88;5034089;28;20551;-63
2021/10/19 06:46:22;;;;;;;6.55;2.60;;;;;;;12.66;79.93;100152.09;5034069;28;20099;-63
2021/10/19 06:49:14;;;;;;;3.65;2.90;;;;;;;12.66;80.27;100154.69;5033885;28;20048;-63
2021/10/19 06:51:58;;;;;;;15.60;3.40;;;;;;;12.66;80.24;100154.69;5033647;28;20107;-63
2021/10/19 06:54:45;;;;;;;7.10;2.83;;;;;;;12.66;80.02;100155.56;5034695;28;20413;-63
2021/10/19 06:57:34;;;;;;;6.70;3.08;;;;;;;12.67;80.37;100157.31;5034848;28;20068;-63
2021/10/19 07:00:21;;;;;;;3.58;2.63;;;;;;;12.68;80.01;100152.97;5034084;28;20069;-63
2021/10/19 07:03:14;;;;;;;5.20;2.85;;;;;;;12.68;80.62;100147.78;5034664;28;20126;-63
2021/10/19 07:06:05;;;;;;;4.80;3.15;;;;;;;12.69;80.50;100147.78;5033239;28;20044;-63
2021/10/19 07:08:53;;;;;;;3.38;2.83;;;;;;;12.70;80.26;100144.31;5034464;28;20053;-63
2021/10/19 07:11:45;;;;;;;4.97;3.22;;;;;;;12.71;80.41;100150.41;5034101;28;20048;-63
2021/10/19 07:14:38;;;;;;;6.07;2.88;;;;;;;12.72;80.49;100144.34;5033325;28;20053;-63
2021/10/19 07:17:25;;;;;;;4.93;3.03;;;;;;;12.73;80.24;100146.09;5033818;28;20052;-63
2021/10/19 07:20:15;;;;;;;3.67;2.47;;;;;;;12.73;80.45;100146.09;5032908;28;20049;-63
2021/10/19 07:23:05;;;;;;;4.70;2.83;;;;;;;12.73;80.36;100146.09;5033121;28;20083;-63
2021/10/19 07:25:52;;;;;;;5.82;3.25;;;;;;;12.74;80.49;100161.69;5032565;28;20056;-63
2021/10/19 07:28:36;;;;;;;4.32;3.35;;;;;;;12.75;80.00;100154.78;5033041;28;20048;-63
2021/10/19 07:31:23;;;;;;;4.47;2.72;;;;;;;12.74;80.65;100156.50;5034339;28;20052;-63
2021/10/19 07:34:10;;;;;;;7.20;3.13;;;;;;;12.76;80.34;100160.00;5033364;28;20048;-63
2021/10/19 07:37:00;;;;;;;5.20;3.65;;;;;;;12.75;80.51;100163.44;5033904;28;20531;-63
2021/10/19 07:39:50;;;;;;;4.78;2.95;;;;;;;12.77;80.63;100155.66;5032429;28;20091;-63
2021/10/19 07:42:38;;;;;;;5.15;3.33;;;;;;;12.77;80.77;100159.13;5032828;28;20107;-63
2021/10/19 07:45:30;;;;;;;4.60;3.10;;;;;;;12.78;80.88;100158.28;5032851;28;20060;-62
2021/10/19 07:48:17;;;;;;;6.68;3.58;;;;;;;12.78;80.87;100158.28;5033986;28;20511;-62
2021/10/19 07:51:02;;;;;;;6.65;3.60;;;;;;;12.79;80.78;100160.03;5033228;28;20095;-62
2021/10/19 07:53:48;;;;;;;4.82;2.85;;;;;;;12.81;80.61;100167.81;5032862;28;20144;-61
2021/10/19 07:56:35;;;;;;;3.63;2.72;;;;;;;12.82;80.90;100169.56;5032754;28;20041;-62
2021/10/19 07:59:22;;;;;;;3.90;3.10;;;;;;;12.83;80.95;100163.50;5033797;28;20404;-62
2021/10/19 08:02:14;;;;;;;4.55;2.75;;;;;;;12.83;80.91;100168.72;5033316;28;20068;-61
2021/10/19 08:05:08;;;;;;;3.78;2.95;;;;;;;12.85;80.56;100153.09;5032590;28;20048;-63
2021/10/19 08:08:07;;;;;;;5.70;3.47;;;;;;;12.86;80.92;100163.53;5032286;28;20052;-63
2021/10/19 08:10:59;;;;;;;3.92;2.50;;;;;;;12.88;81.06;100166.16;5033514;28;20534;-64
2021/10/19 08:13:46;;;;;;;8.65;3.55;;;;;;;12.87;80.68;100172.22;5033781;28;20052;-63
2021/10/19 08:16:32;;;;;;;6.57;2.40;;;;;;;12.89;80.81;100175.69;5033492;28;20055;-63
2021/10/19 08:19:22;;;;;;;6.47;2.88;;;;;;;12.89;81.10;100173.97;5033423;28;20048;-63
2021/10/19 08:22:09;;;;;;;5.47;2.85;;;;;;;12.91;81.16;100173.97;5032148;28;20142;-63
2021/10/19 08:25:02;;;;;;;8.27;2.90;;;;;;;12.90;80.88;100175.72;5032915;28;20194;-63
2021/10/19 08:27:47;;;;;;;4.35;3.33;;;;;;;12.91;80.71;100172.28;5033109;28;20115;-63
2021/10/19 08:30:40;;;;;;;;;;;;;;;12.91;81.11;100180.06;5033345;28;20044;-63
2021/10/19 08:33:32;;;;;;;4.68;3.22;;;;;;;12.91;80.81;100174.88;5035374;28;19920;-63
2021/10/19 08:36:17;;;;;;;4.10;2.63;;;;;;;12.92;81.13;100176.59;5036463;28;20099;-63
2021/10/19 08:39:10;;;;;;;3.75;3.20;;;;;;;12.94;81.11;100185.28;5036013;28;20045;-63
2021/10/19 08:41:57;;;;;;;4.40;2.25;;;;;;;12.95;80.94;100191.38;5037268;28;20048;-63
2021/10/19 08:44:52;;;;;;;3.72;2.90;;;;;;;12.97;81.00;100183.56;5036916;28;20561;-63
2021/10/19 08:47:42;;;;;;;6.15;3.38;;;;;;;12.97;81.09;100176.66;5036587;28;20057;-63
2021/10/19 08:50:31;;;;;;;6.20;3.08;;;;;;;12.98;81.29;100180.09;5036127;28;20137;-63
2021/10/19 08:53:18;;;;;;;4.32;3.28;;;;;;;12.97;81.09;100174.06;5035889;28;20053;-63
2021/10/19 08:56:03;;;;;;;4.72;3.20;;;;;;;12.98;80.99;100181.00;5036422;28;20100;-63
2021/10/19 08:58:58;;;;;;;3.75;3.03;;;;;;;12.99;80.93;100169.72;5036846;28;20553;-63
2021/10/19 09:01:42;;;;;;;5.47;3.20;;;;;;;13.01;80.93;100172.34;5036566;28;20056;-64
2021/10/19 09:04:29;;;;;;;5.90;3.25;;;;;;;13.02;81.19;100166.28;5037455;28;20092;-63
2021/10/19 09:07:27;;;;;;;3.47;3.17;;;;;;;13.04;81.33;100164.56;5035500;28;20416;-63
2021/10/19 09:10:15;;;;;;;3.72;2.78;;;;;;;13.05;81.58;100180.16;5036534;28;20053;-63
2021/10/19 09:13:05;;;;;;;5.18;3.17;;;;;;;13.05;81.31;100187.97;5035594;28;20404;-63
2021/10/19 09:15:53;;;;;;;4.32;3.50;;;;;;;13.06;81.56;100183.66;5036589;28;20052;-63
2021/10/19 09:18:37;;;;;;;6.93;3.90;;;;;;;13.05;81.16;100182.78;5035402;28;20087;-63
2021/10/19 09:21:28;;;;;;;5.05;3.28;;;;;;;13.04;81.54;100188.84;5036536;28;20052;-63
2021/10/19 09:24:19;;;;;;;7.47;3.70;;;;;;;13.05;81.35;100180.16;5035465;28;20124;-63
2021/10/19 09:27:14;;;;;;;4.40;3.47;;;;;;;13.06;81.25;100184.53;5035600;28;20091;-63
2021/10/19 09:30:06;;;;;;;4.38;3.88;;;;;;;13.08;81.36;100185.41;5036584;28;20048;-63
2021/10/19 09:32:55;;;;;;;4.35;3.92;;;;;;;13.08;81.22;100184.50;5035164;28;20048;-63
2021/10/19 09:35:43;;;;;;;4.65;3.92;;;;;;;13.09;81.50;100186.25;5034937;28;20562;-63
2021/10/19 09:38:35;;;;;;;5.80;5.03;;;;;;;13.10;81.40;100188.00;5036304;28;20052;-63
2021/10/19 09:41:22;;;;;;;7.85;5.18;;;;;;;13.12;81.43;100190.63;5034837;28;20179;-63
2021/10/19 09:44:14;;;;;;;8.07;5.25;;;;;;;13.13;81.51;100195.84;5033936;28;20056;-63
2021/10/19 09:47:01;;;;;;;7.10;5.40;;;;;;;13.14;81.47;100194.13;5036148;28;20051;-63
2021/10/19 09:49:47;;;;;;;7.82;5.78;;;;;;;13.15;81.48;100199.34;5034799;28;20044;-63
2021/10/19 09:52:37;;;;;;;8.05;6.65;;;;;;;13.17;81.65;100202.81;5035439;28;20080;-63
2021/10/19 09:55:23;;;;;;;8.82;5.97;;;;;;;13.17;81.57;100196.72;5036162;28;20045;-63
2021/10/19 09:58:07;;;;;;;11.00;7.28;;;;;;;13.20;81.62;100186.34;5034644;28;20133;-63
2021/10/19 10:00:53;;;;;;;10.23;7.88;;;;;;;13.21;81.86;100206.31;5035455;28;20128;-63
2021/10/19 10:03:51;;;;;;;13.00;7.88;;;;;;;13.22;81.93;100208.94;5034307;28;20554;-63
2021/10/19 10:06:43;;;;;;;10.68;8.32;;;;;;;13.23;81.64;100215.91;5034942;28;20120;-63
2021/10/19 10:09:27;;;;;;;11.93;8.23;;;;;;;13.26;81.80;100217.63;5034750;28;20053;-63
2021/10/19 10:12:12;;;;;;;11.40;8.55;;;;;;;13.27;81.63;100198.56;5035354;28;20408;-63
2021/10/19 10:15:00;;;;;;;13.13;8.32;;;;;;;13.29;81.79;100206.38;5034805;28;20079;-63
2021/10/19 10:18:01;;;;;;;13.38;9.55;;;;;;;13.31;81.92;100209.88;5033983;28;20072;-63
2021/10/19 10:20:48;;;;;;;11.40;9.27;;;;;;;13.32;81.79;100217.66;5034384;28;20052;-63
2021/10/19 10:23:42;;;;;;;13.73;9.32;;;;;;;13.33;81.79;100216.81;5034546;28;20048;-63
2021/10/19 10:26:30;;;;;;;11.02;8.63;;;;;;;13.34;81.95;100213.34;5035216;28;20044;-63
2021/10/19 10:29:17;;;;;;;11.13;8.65;;;;;;;13.34;81.75;100217.69;5034198;28;20562;-63
2021/10/19 10:32:06;;;;;;;14.57;10.45;;;;;;;13.36;81.67;100209.03;5035097;28;20041;-63
2021/10/19 10:35:06;;;;;;;13.93;9.55;;;;;;;13.37;81.97;100210.78;5035264;28;20132;-63
2021/10/19 10:37:58;;;;;;;11.77;9.32;;;;;;;13.38;82.06;100196.03;5034281;28;20048;-64
2021/10/19 10:40:49;;;;;;;11.07;9.43;;;;;;;13.42;82.03;100210.84;5034678;28;20052;-61
2021/10/19 10:43:36;;;;;;;11.00;9.48;;;;;;;13.46;82.12;100202.19;5033581;28;20099;-63
2021/10/19 10:46:21;;;;;;;12.88;9.65;;;;;;;13.48;81.92;100191.78;5033702;28;20052;-63
2021/10/19 10:49:11;;;;;;;13.07;9.50;;;;;;;13.51;82.17;100197.00;5033849;28;20475;-63
2021/10/19 10:52:02;;;;;;;14.15;10.13;;;;;;;13.53;82.31;100208.31;5033832;28;20060;-63
2021/10/19 10:55:02;;;;;;;11.80;9.15;;;;;;;13.55;82.18;100206.59;5034986;28;20060;-63
2021/10/19 10:57:52;;;;;;;13.73;10.05;;;;;;;13.55;82.17;100209.19;5033577;28;20079;-63
2021/10/19 11:00:42;;;;;;;11.38;9.50;;;;;;;13.54;82.03;100205.72;5033847;28;20132;-63
2021/10/19 11:03:26;;;;;;;12.55;9.88;;;;;;;13.55;81.86;100196.19;5035100;28;20059;-64
2021/10/19 11:06:20;;;;;;;;;;;;;;;13.53;82.09;100196.19;5035032;28;20563;-63
2021/10/19 11:09:15;;;;;;;14.80;8.93;;;;;;;13.51;82.28;100184.88;5034345;28;19924;-63
2021/10/19 11:12:02;;;;;;;13.43;10.63;;;;;;;13.52;81.98;100188.34;5033341;28;20045;-63
2021/10/19 11:14:47;;;;;;;13.45;9.60;;;;;;;13.55;82.33;100198.78;5033629;28;20056;-63
2021/10/19 11:17:30;;;;;;;;;;;;;;;13.55;82.23;100184.00;5033973;28;20095;-63
2021/10/19 11:20:19;;;;;;;14.77;11.15;;;;;;;13.57;82.20;100191.84;5032926;28;19983;-63
2021/10/19 11:23:05;;;;;;;14.88;10.95;;;;;;;13.57;82.31;100186.66;5033425;28;20210;-63
2021/10/19 11:25:59;;;;;;;17.58;11.90;;;;;;;13.59;82.35;100184.94;5033726;28;20100;-63
2021/10/19 11:28:44;;;;;;;16.65;11.63;;;;;;;13.59;82.13;100189.25;5033201;28;20473;-62
2021/10/19 11:31:37;;;;;;;15.68;12.80;;;;;;;13.60;82.25;100188.38;5034352;28;20047;-61
2021/10/19 11:34:21;;;;;;;15.82;10.27;;;;;;;13.60;82.41;100194.47;5034236;28;20171;-62
2021/10/19 11:37:05;;;;;;;13.05;10.57;;;;;;;13.61;82.25;100185.81;5034034;28;20095;-62
2021/10/19 11:40:11;;;;;;;12.52;10.02;;;;;;;13.62;82.45;100182.34;5033511;28;20048;-62
2021/10/19 11:42:57;;;;;;;16.20;9.93;;;;;;;13.61;82.49;100180.59;5032726;28;20587;-62
2021/10/19 11:45:48;;;;;;;12.38;9.43;;;;;;;13.63;82.47;100171.03;5033034;28;20104;-63
2021/10/19 11:48:33;;;;;;;10.55;8.70;;;;;;;13.63;82.42;100178.84;5034002;28;20103;-63
2021/10/19 11:51:26;;;;;;;12.30;9.52;;;;;;;13.65;82.36;100190.16;5032366;28;20051;-63
2021/10/19 11:54:14;;;;;;;14.43;10.48;;;;;;;13.66;82.54;100173.66;5032455;28;20409;-63
2021/10/19 11:57:10;;;;;;;12.70;9.90;;;;;;;13.67;82.33;100177.16;5033988;28;20643;-63
2021/10/19 11:59:55;;;;;;;12.10;9.95;;;;;;;13.67;82.38;100175.41;5032094;28;20053;-63
2021/10/19 12:02:49;;;;;;;;;;;;;;;13.68;82.53;100169.34;5032673;28;20111;-63
2021/10/19 12:05:36;;;;;;;12.13;6.83;;;;;;;13.67;82.24;100164.13;5033222;28;19924;-63
2021/10/19 12:08:27;;;;;;;11.23;8.68;;;;;;;13.67;82.37;100166.75;5033286;28;20407;-63
2021/10/19 12:11:14;;;;;;;10.27;6.43;;;;;;;13.66;82.41;100162.38;5033835;28;20052;-63
2021/10/19 12:13:59;;;;;;;11.30;7.63;;;;;;;13.68;82.46;100163.28;5032718;28;20051;-63
2021/10/19 12:16:57;;;;;;;13.00;7.93;;;;;;;13.68;82.42;100160.66;5032148;28;20044;-63
2021/10/19 12:19:52;;;;;;;9.80;7.20;;;;;;;13.70;82.71;100159.81;5033232;28;20125;-63
2021/10/19 12:22:37;;;;;;;10.07;7.97;;;;;;;13.72;82.55;100159.78;5032184;28;20053;-63
2021/10/19 12:25:21;;;;;;;13.30;9.70;;;;;;;13.73;82.62;100165.91;5032442;28;20045;-63
2021/10/19 12:28:14;;;;;;;17.98;14.80;;;;;;;13.75;82.63;100158.97;5033406;28;20060;-63
2021/10/19 12:31:05;;;;;;;18.65;11.88;;;;;;;13.76;82.71;100158.09;5032176;28;20449;-63
2021/10/19 12:33:59;;;;;;;14.93;10.63;;;;;;;13.77;82.66;100162.44;5033453;28;20539;-63
2021/10/19 12:36:46;;;;;;;;;;;;;;;13.76;82.66;100155.50;5032827;28;20107;-63
2021/10/19 12:39:43;;;;;;;36.47;24.80;;;;;;;13.76;82.74;100155.50;5032714;28;20002;-63
2021/10/19 12:42:28;;;;;;;60.42;40.03;;;;;;;13.77;82.90;100142.47;5033167;28;20045;-63
2021/10/19 12:45:19;;;;;;;56.80;37.78;;;;;;;13.79;82.79;100139.84;5032412;28;20052;-63
2021/10/19 12:48:07;;;;;;;71.03;48.53;;;;;;;13.81;82.90;100145.94;5032633;28;20095;-63
2021/10/19 12:50:54;;;;;;;54.05;36.13;;;;;;;13.83;82.85;100126.88;5032370;28;20048;-63
2021/10/19 12:53:41;;;;;;;61.65;44.83;;;;;;;13.85;82.87;100125.16;5032964;28;20107;-63
2021/10/19 12:56:28;;;;;;;50.08;34.67;;;;;;;13.86;82.74;100126.00;5032817;28;20539;-63
2021/10/19 12:59:15;;;;;;;49.40;35.67;;;;;;;13.87;82.83;100122.53;5033130;28;20076;-63